sensor_id;sensor_type;location;lat;lon;timestamp;P1;durP1;ratioP1;P2;durP2;ratioP2
26223;SDS011;14820;48.682;8.890;2023-03-01T00:01:07;29.33;;;16.35;;
26223;SDS011;14820;48.682;8.890;2023-03-01T00:03:37;28.50;;;15.90;;
26223;SDS011;14820;48.682;8.890;2023-03-01T00:06:03;26.42;;;15.02;;
26223;SDS011;14820;48.682;8.890;2023-03-01T00:08:29;29.25;;;15.80;;
26223;SDS011;14820;48.682;8.890;2023-03-01T00:13:42;28.70;;;15.43;;
26223;SDS011;14820;48.682;8.890;2023-03-01T00:16:10;31.67;;;15.75;;
26223;SDS011;14820;48.682;8.890;2023-03-01T00:18:39;29.45;;;15.93;;
26223;SDS011;14820;48.682;8.890;2023-03-01T00:21:05;29.05;;;15.90;;
26223;SDS011;14820;48.682;8.890;2023-03-01T00:23:31;27.50;;;14.57;;
26223;SDS011;14820;48.682;8.890;2023-03-01T00:25:59;31.13;;;15.98;;
26223;SDS011;14820;48.682;8.890;2023-03-01T00:28:25;26.95;;;15.30;;
26223;SDS011;14820;48.682;8.890;2023-03-01T00:30:51;27.00;;;14.90;;
26223;SDS011;14820;48.682;8.890;2023-03-01T00:33:17;28.08;;;14.90;;
26223;SDS011;14820;48.682;8.890;2023-03-01T00:35:43;25.48;;;15.10;;
26223;SDS011;14820;48.682;8.890;2023-03-01T00:38:09;31.40;;;15.38;;
26223;SDS011;14820;48.682;8.890;2023-03-01T00:40:35;28.50;;;16.02;;
26223;SDS011;14820;48.682;8.890;2023-03-01T00:43:02;30.05;;;14.77;;
26223;SDS011;14820;48.682;8.890;2023-03-01T00:45:28;26.77;;;14.30;;
26223;SDS011;14820;48.682;8.890;2023-03-01T00:47:56;31.50;;;15.68;;
26223;SDS011;14820;48.682;8.890;2023-03-01T00:50:22;25.15;;;14.80;;
26223;SDS011;14820;48.682;8.890;2023-03-01T00:52:52;28.25;;;14.82;;
26223;SDS011;14820;48.682;8.890;2023-03-01T00:55:18;23.88;;;14.55;;
26223;SDS011;14820;48.682;8.890;2023-03-01T00:57:44;30.77;;;15.32;;
26223;SDS011;14820;48.682;8.890;2023-03-01T01:00:10;29.15;;;14.60;;
26223;SDS011;14820;48.682;8.890;2023-03-01T01:02:36;27.50;;;15.15;;
26223;SDS011;14820;48.682;8.890;2023-03-01T01:05:02;33.83;;;16.58;;
26223;SDS011;14820;48.682;8.890;2023-03-01T01:07:29;33.08;;;16.35;;
26223;SDS011;14820;48.682;8.890;2023-03-01T01:09:55;29.55;;;16.33;;
26223;SDS011;14820;48.682;8.890;2023-03-01T01:12:21;29.10;;;15.80;;
26223;SDS011;14820;48.682;8.890;2023-03-01T01:14:47;28.95;;;16.27;;
26223;SDS011;14820;48.682;8.890;2023-03-01T01:17:13;28.02;;;14.85;;
26223;SDS011;14820;48.682;8.890;2023-03-01T01:19:39;28.90;;;15.23;;
26223;SDS011;14820;48.682;8.890;2023-03-01T01:22:05;28.70;;;15.05;;
26223;SDS011;14820;48.682;8.890;2023-03-01T01:24:31;31.42;;;15.55;;
26223;SDS011;14820;48.682;8.890;2023-03-01T01:26:56;31.48;;;16.23;;
26223;SDS011;14820;48.682;8.890;2023-03-01T01:29:22;33.17;;;17.08;;
26223;SDS011;14820;48.682;8.890;2023-03-01T01:31:48;30.83;;;16.88;;
26223;SDS011;14820;48.682;8.890;2023-03-01T01:34:15;35.35;;;18.08;;
26223;SDS011;14820;48.682;8.890;2023-03-01T01:36:43;34.10;;;17.80;;
26223;SDS011;14820;48.682;8.890;2023-03-01T01:39:12;32.33;;;16.73;;
26223;SDS011;14820;48.682;8.890;2023-03-01T01:41:38;29.25;;;16.05;;
26223;SDS011;14820;48.682;8.890;2023-03-01T01:44:11;33.97;;;16.70;;
26223;SDS011;14820;48.682;8.890;2023-03-01T01:46:46;33.72;;;16.00;;
26223;SDS011;14820;48.682;8.890;2023-03-01T01:49:27;37.40;;;17.02;;
26223;SDS011;14820;48.682;8.890;2023-03-01T01:52:05;28.15;;;15.63;;
26223;SDS011;14820;48.682;8.890;2023-03-01T01:54:40;35.78;;;16.63;;
26223;SDS011;14820;48.682;8.890;2023-03-01T02:00:20;32.50;;;16.25;;
26223;SDS011;14820;48.682;8.890;2023-03-01T02:02:55;29.33;;;15.75;;
26223;SDS011;14820;48.682;8.890;2023-03-01T02:05:26;38.10;;;16.42;;
26223;SDS011;14820;48.682;8.890;2023-03-01T02:08:04;33.15;;;16.35;;
26223;SDS011;14820;48.682;8.890;2023-03-01T02:10:32;44.95;;;17.15;;
26223;SDS011;14820;48.682;8.890;2023-03-01T02:12:59;31.45;;;16.60;;
26223;SDS011;14820;48.682;8.890;2023-03-01T02:15:25;32.00;;;16.70;;
26223;SDS011;14820;48.682;8.890;2023-03-01T02:17:51;35.13;;;15.95;;
26223;SDS011;14820;48.682;8.890;2023-03-01T02:22:51;30.75;;;16.63;;
26223;SDS011;14820;48.682;8.890;2023-03-01T02:25:24;32.42;;;16.23;;
26223;SDS011;14820;48.682;8.890;2023-03-01T02:28:08;31.73;;;16.03;;
26223;SDS011;14820;48.682;8.890;2023-03-01T02:30:39;33.47;;;16.92;;
26223;SDS011;14820;48.682;8.890;2023-03-01T02:33:26;28.25;;;15.93;;
26223;SDS011;14820;48.682;8.890;2023-03-01T02:35:52;30.30;;;16.23;;
26223;SDS011;14820;48.682;8.890;2023-03-01T02:38:19;31.83;;;16.17;;
26223;SDS011;14820;48.682;8.890;2023-03-01T02:40:47;35.35;;;16.40;;
26223;SDS011;14820;48.682;8.890;2023-03-01T02:43:14;31.45;;;16.70;;
26223;SDS011;14820;48.682;8.890;2023-03-01T02:45:47;28.80;;;15.63;;
26223;SDS011;14820;48.682;8.890;2023-03-01T02:48:15;29.63;;;16.02;;
26223;SDS011;14820;48.682;8.890;2023-03-01T02:50:46;29.85;;;16.10;;
26223;SDS011;14820;48.682;8.890;2023-03-01T02:53:41;34.28;;;16.25;;
26223;SDS011;14820;48.682;8.890;2023-03-01T02:56:13;27.58;;;14.93;;
26223;SDS011;14820;48.682;8.890;2023-03-01T02:58:42;31.27;;;16.20;;
26223;SDS011;14820;48.682;8.890;2023-03-01T03:01:15;27.98;;;15.43;;
26223;SDS011;14820;48.682;8.890;2023-03-01T03:03:42;27.95;;;15.07;;
26223;SDS011;14820;48.682;8.890;2023-03-01T03:06:09;30.23;;;15.40;;
26223;SDS011;14820;48.682;8.890;2023-03-01T03:08:34;32.00;;;15.23;;
26223;SDS011;14820;48.682;8.890;2023-03-01T03:11:01;27.27;;;14.38;;
26223;SDS011;14820;48.682;8.890;2023-03-01T03:13:26;34.63;;;16.20;;
26223;SDS011;14820;48.682;8.890;2023-03-01T03:15:53;31.60;;;15.95;;
26223;SDS011;14820;48.682;8.890;2023-03-01T03:18:23;35.83;;;16.23;;
26223;SDS011;14820;48.682;8.890;2023-03-01T03:20:51;29.48;;;14.73;;
26223;SDS011;14820;48.682;8.890;2023-03-01T03:23:18;30.75;;;15.50;;
26223;SDS011;14820;48.682;8.890;2023-03-01T03:25:50;33.72;;;15.27;;
26223;SDS011;14820;48.682;8.890;2023-03-01T03:28:16;27.75;;;15.60;;
26223;SDS011;14820;48.682;8.890;2023-03-01T03:30:42;27.25;;;14.60;;
26223;SDS011;14820;48.682;8.890;2023-03-01T03:33:10;28.77;;;15.00;;
26223;SDS011;14820;48.682;8.890;2023-03-01T03:35:46;30.08;;;15.02;;
26223;SDS011;14820;48.682;8.890;2023-03-01T03:38:13;28.30;;;15.45;;
26223;SDS011;14820;48.682;8.890;2023-03-01T03:40:46;27.05;;;14.88;;
26223;SDS011;14820;48.682;8.890;2023-03-01T03:43:14;31.92;;;16.08;;
26223;SDS011;14820;48.682;8.890;2023-03-01T03:45:43;28.50;;;15.15;;
26223;SDS011;14820;48.682;8.890;2023-03-01T03:48:10;31.63;;;15.63;;
26223;SDS011;14820;48.682;8.890;2023-03-01T03:50:36;30.00;;;16.42;;
26223;SDS011;14820;48.682;8.890;2023-03-01T03:53:04;30.58;;;14.43;;
26223;SDS011;14820;48.682;8.890;2023-03-01T03:55:32;27.77;;;15.35;;
26223;SDS011;14820;48.682;8.890;2023-03-01T03:57:59;33.08;;;16.63;;
26223;SDS011;14820;48.682;8.890;2023-03-01T04:00:32;29.85;;;16.05;;
26223;SDS011;14820;48.682;8.890;2023-03-01T04:03:00;35.05;;;16.95;;
26223;SDS011;14820;48.682;8.890;2023-03-01T04:05:26;36.75;;;17.27;;
26223;SDS011;14820;48.682;8.890;2023-03-01T04:07:52;34.55;;;16.33;;
26223;SDS011;14820;48.682;8.890;2023-03-01T04:10:26;31.05;;;16.35;;
26223;SDS011;14820;48.682;8.890;2023-03-01T04:12:57;30.63;;;15.40;;
26223;SDS011;14820;48.682;8.890;2023-03-01T04:15:24;32.65;;;16.70;;
26223;SDS011;14820;48.682;8.890;2023-03-01T04:17:54;33.45;;;16.42;;
26223;SDS011;14820;48.682;8.890;2023-03-01T04:20:21;29.60;;;16.42;;
26223;SDS011;14820;48.682;8.890;2023-03-01T04:22:58;29.95;;;15.82;;
26223;SDS011;14820;48.682;8.890;2023-03-01T04:25:36;28.83;;;15.80;;
26223;SDS011;14820;48.682;8.890;2023-03-01T04:28:06;29.52;;;14.95;;
26223;SDS011;14820;48.682;8.890;2023-03-01T04:30:32;27.27;;;14.85;;
26223;SDS011;14820;48.682;8.890;2023-03-01T04:33:01;28.20;;;14.75;;
26223;SDS011;14820;48.682;8.890;2023-03-01T04:35:28;30.48;;;15.57;;
26223;SDS011;14820;48.682;8.890;2023-03-01T04:37:54;30.45;;;16.10;;
26223;SDS011;14820;48.682;8.890;2023-03-01T04:40:20;26.73;;;14.27;;
26223;SDS011;14820;48.682;8.890;2023-03-01T04:42:46;28.00;;;15.60;;
26223;SDS011;14820;48.682;8.890;2023-03-01T04:45:12;29.35;;;16.10;;
26223;SDS011;14820;48.682;8.890;2023-03-01T04:47:41;28.83;;;16.73;;
26223;SDS011;14820;48.682;8.890;2023-03-01T04:50:09;28.67;;;16.77;;
26223;SDS011;14820;48.682;8.890;2023-03-01T04:52:35;29.50;;;14.65;;
26223;SDS011;14820;48.682;8.890;2023-03-01T04:55:01;32.03;;;15.90;;
26223;SDS011;14820;48.682;8.890;2023-03-01T04:57:28;34.65;;;16.48;;
26223;SDS011;14820;48.682;8.890;2023-03-01T04:59:54;31.52;;;16.23;;
26223;SDS011;14820;48.682;8.890;2023-03-01T05:02:20;30.17;;;15.80;;
26223;SDS011;14820;48.682;8.890;2023-03-01T05:04:45;30.48;;;16.38;;
26223;SDS011;14820;48.682;8.890;2023-03-01T05:07:11;31.63;;;16.63;;
26223;SDS011;14820;48.682;8.890;2023-03-01T05:09:38;36.40;;;18.00;;
26223;SDS011;14820;48.682;8.890;2023-03-01T05:12:04;36.35;;;16.38;;
26223;SDS011;14820;48.682;8.890;2023-03-01T05:14:30;30.65;;;16.98;;
26223;SDS011;14820;48.682;8.890;2023-03-01T05:16:55;33.88;;;18.10;;
26223;SDS011;14820;48.682;8.890;2023-03-01T05:19:28;29.23;;;16.10;;
26223;SDS011;14820;48.682;8.890;2023-03-01T05:21:56;29.83;;;16.45;;
26223;SDS011;14820;48.682;8.890;2023-03-01T05:26:57;29.38;;;14.30;;
26223;SDS011;14820;48.682;8.890;2023-03-01T05:29:24;28.50;;;16.90;;
26223;SDS011;14820;48.682;8.890;2023-03-01T05:31:54;29.90;;;16.40;;
26223;SDS011;14820;48.682;8.890;2023-03-01T05:34:27;26.35;;;15.10;;
26223;SDS011;14820;48.682;8.890;2023-03-01T05:36:55;34.03;;;17.45;;
26223;SDS011;14820;48.682;8.890;2023-03-01T05:39:22;30.88;;;15.63;;
26223;SDS011;14820;48.682;8.890;2023-03-01T05:41:52;38.50;;;18.20;;
26223;SDS011;14820;48.682;8.890;2023-03-01T05:44:19;27.02;;;16.67;;
26223;SDS011;14820;48.682;8.890;2023-03-01T05:46:45;30.73;;;17.98;;
26223;SDS011;14820;48.682;8.890;2023-03-01T05:49:11;31.17;;;17.33;;
26223;SDS011;14820;48.682;8.890;2023-03-01T05:51:41;32.80;;;17.92;;
26223;SDS011;14820;48.682;8.890;2023-03-01T05:54:08;30.33;;;16.08;;
26223;SDS011;14820;48.682;8.890;2023-03-01T05:56:34;35.53;;;18.90;;
26223;SDS011;14820;48.682;8.890;2023-03-01T05:59:01;36.08;;;19.20;;
26223;SDS011;14820;48.682;8.890;2023-03-01T06:01:28;35.05;;;18.88;;
26223;SDS011;14820;48.682;8.890;2023-03-01T06:03:54;29.67;;;17.45;;
26223;SDS011;14820;48.682;8.890;2023-03-01T06:06:20;28.23;;;16.45;;
26223;SDS011;14820;48.682;8.890;2023-03-01T06:08:46;30.95;;;16.88;;
26223;SDS011;14820;48.682;8.890;2023-03-01T06:11:12;31.27;;;16.70;;
26223;SDS011;14820;48.682;8.890;2023-03-01T06:13:37;32.58;;;17.85;;
26223;SDS011;14820;48.682;8.890;2023-03-01T06:16:04;38.05;;;19.70;;
26223;SDS011;14820;48.682;8.890;2023-03-01T06:18:31;34.75;;;18.63;;
26223;SDS011;14820;48.682;8.890;2023-03-01T06:20:57;32.50;;;17.52;;
26223;SDS011;14820;48.682;8.890;2023-03-01T06:23:23;29.63;;;17.90;;
26223;SDS011;14820;48.682;8.890;2023-03-01T06:25:49;33.70;;;18.52;;
26223;SDS011;14820;48.682;8.890;2023-03-01T06:28:14;31.50;;;17.52;;
26223;SDS011;14820;48.682;8.890;2023-03-01T06:30:40;30.25;;;17.92;;
26223;SDS011;14820;48.682;8.890;2023-03-01T06:33:06;39.50;;;19.40;;
26223;SDS011;14820;48.682;8.890;2023-03-01T06:35:31;35.03;;;18.65;;
26223;SDS011;14820;48.682;8.890;2023-03-01T06:37:58;35.03;;;18.70;;
26223;SDS011;14820;48.682;8.890;2023-03-01T06:40:25;32.58;;;18.20;;
26223;SDS011;14820;48.682;8.890;2023-03-01T06:42:51;33.63;;;19.17;;
26223;SDS011;14820;48.682;8.890;2023-03-01T06:45:17;36.25;;;18.25;;
26223;SDS011;14820;48.682;8.890;2023-03-01T06:47:44;34.70;;;19.02;;
26223;SDS011;14820;48.682;8.890;2023-03-01T06:50:10;31.08;;;17.42;;
26223;SDS011;14820;48.682;8.890;2023-03-01T06:52:37;35.15;;;18.63;;
26223;SDS011;14820;48.682;8.890;2023-03-01T06:55:03;39.85;;;18.55;;
26223;SDS011;14820;48.682;8.890;2023-03-01T06:57:29;33.13;;;18.30;;
26223;SDS011;14820;48.682;8.890;2023-03-01T06:59:55;38.10;;;19.35;;
26223;SDS011;14820;48.682;8.890;2023-03-01T07:02:20;33.20;;;18.02;;
26223;SDS011;14820;48.682;8.890;2023-03-01T07:04:48;38.35;;;18.42;;
26223;SDS011;14820;48.682;8.890;2023-03-01T07:07:15;35.30;;;18.35;;
26223;SDS011;14820;48.682;8.890;2023-03-01T07:09:43;34.97;;;17.77;;
26223;SDS011;14820;48.682;8.890;2023-03-01T07:12:13;33.97;;;18.35;;
26223;SDS011;14820;48.682;8.890;2023-03-01T07:14:38;31.90;;;17.75;;
26223;SDS011;14820;48.682;8.890;2023-03-01T07:17:04;36.40;;;18.88;;
26223;SDS011;14820;48.682;8.890;2023-03-01T07:19:30;30.88;;;18.10;;
26223;SDS011;14820;48.682;8.890;2023-03-01T07:21:55;28.42;;;16.63;;
26223;SDS011;14820;48.682;8.890;2023-03-01T07:24:21;33.38;;;18.98;;
26223;SDS011;14820;48.682;8.890;2023-03-01T07:26:48;32.15;;;17.90;;
26223;SDS011;14820;48.682;8.890;2023-03-01T07:29:15;35.85;;;18.95;;
26223;SDS011;14820;48.682;8.890;2023-03-01T07:31:42;39.00;;;19.38;;
26223;SDS011;14820;48.682;8.890;2023-03-01T07:34:07;34.15;;;20.45;;
26223;SDS011;14820;48.682;8.890;2023-03-01T07:36:33;36.83;;;19.52;;
26223;SDS011;14820;48.682;8.890;2023-03-01T07:38:58;43.03;;;18.45;;
26223;SDS011;14820;48.682;8.890;2023-03-01T07:41:27;31.80;;;18.08;;
26223;SDS011;14820;48.682;8.890;2023-03-01T07:43:53;36.28;;;18.63;;
26223;SDS011;14820;48.682;8.890;2023-03-01T07:46:19;33.83;;;19.80;;
26223;SDS011;14820;48.682;8.890;2023-03-01T07:48:45;36.97;;;19.83;;
26223;SDS011;14820;48.682;8.890;2023-03-01T07:51:11;32.10;;;18.98;;
26223;SDS011;14820;48.682;8.890;2023-03-01T07:53:36;37.25;;;19.40;;
26223;SDS011;14820;48.682;8.890;2023-03-01T07:58:36;35.72;;;19.77;;
26223;SDS011;14820;48.682;8.890;2023-03-01T08:01:03;36.78;;;19.20;;
26223;SDS011;14820;48.682;8.890;2023-03-01T08:03:33;32.75;;;18.95;;
26223;SDS011;14820;48.682;8.890;2023-03-01T08:06:00;38.53;;;19.30;;
26223;SDS011;14820;48.682;8.890;2023-03-01T08:08:29;34.78;;;19.48;;
26223;SDS011;14820;48.682;8.890;2023-03-01T08:10:58;38.25;;;21.70;;
26223;SDS011;14820;48.682;8.890;2023-03-01T08:13:25;45.50;;;22.95;;
26223;SDS011;14820;48.682;8.890;2023-03-01T08:15:51;49.20;;;22.70;;
26223;SDS011;14820;48.682;8.890;2023-03-01T08:18:17;35.78;;;21.52;;
26223;SDS011;14820;48.682;8.890;2023-03-01T08:20:44;37.13;;;20.65;;
26223;SDS011;14820;48.682;8.890;2023-03-01T08:23:10;40.80;;;22.02;;
26223;SDS011;14820;48.682;8.890;2023-03-01T08:25:36;40.13;;;19.42;;
26223;SDS011;14820;48.682;8.890;2023-03-01T08:28:02;38.30;;;20.30;;
26223;SDS011;14820;48.682;8.890;2023-03-01T08:30:27;34.17;;;19.58;;
26223;SDS011;14820;48.682;8.890;2023-03-01T08:32:53;38.10;;;21.35;;
26223;SDS011;14820;48.682;8.890;2023-03-01T08:35:20;36.35;;;20.17;;
26223;SDS011;14820;48.682;8.890;2023-03-01T08:37:45;34.33;;;19.55;;
26223;SDS011;14820;48.682;8.890;2023-03-01T08:40:12;34.30;;;19.05;;
26223;SDS011;14820;48.682;8.890;2023-03-01T08:42:38;35.90;;;20.10;;
26223;SDS011;14820;48.682;8.890;2023-03-01T08:45:05;38.45;;;20.50;;
26223;SDS011;14820;48.682;8.890;2023-03-01T08:47:32;35.40;;;19.33;;
26223;SDS011;14820;48.682;8.890;2023-03-01T08:49:59;31.65;;;19.30;;
26223;SDS011;14820;48.682;8.890;2023-03-01T08:52:25;34.03;;;19.17;;
26223;SDS011;14820;48.682;8.890;2023-03-01T08:54:51;32.17;;;19.50;;
26223;SDS011;14820;48.682;8.890;2023-03-01T08:57:17;37.10;;;19.00;;
26223;SDS011;14820;48.682;8.890;2023-03-01T08:59:43;36.53;;;20.13;;
26223;SDS011;14820;48.682;8.890;2023-03-01T09:02:16;40.00;;;20.95;;
26223;SDS011;14820;48.682;8.890;2023-03-01T09:04:42;32.35;;;19.80;;
26223;SDS011;14820;48.682;8.890;2023-03-01T09:07:10;37.33;;;21.05;;
26223;SDS011;14820;48.682;8.890;2023-03-01T09:09:36;47.78;;;19.92;;
26223;SDS011;14820;48.682;8.890;2023-03-01T09:12:02;33.17;;;19.98;;
26223;SDS011;14820;48.682;8.890;2023-03-01T09:14:28;34.42;;;19.98;;
26223;SDS011;14820;48.682;8.890;2023-03-01T09:16:54;34.67;;;19.30;;
26223;SDS011;14820;48.682;8.890;2023-03-01T09:19:19;35.35;;;20.38;;
26223;SDS011;14820;48.682;8.890;2023-03-01T09:21:45;37.63;;;20.38;;
26223;SDS011;14820;48.682;8.890;2023-03-01T09:24:17;37.65;;;20.25;;
26223;SDS011;14820;48.682;8.890;2023-03-01T09:26:47;37.05;;;20.77;;
26223;SDS011;14820;48.682;8.890;2023-03-01T09:29:14;31.80;;;18.58;;
26223;SDS011;14820;48.682;8.890;2023-03-01T09:31:40;33.08;;;19.10;;
26223;SDS011;14820;48.682;8.890;2023-03-01T09:34:07;33.67;;;20.45;;
26223;SDS011;14820;48.682;8.890;2023-03-01T09:36:32;33.15;;;19.23;;
26223;SDS011;14820;48.682;8.890;2023-03-01T09:38:58;30.05;;;18.90;;
26223;SDS011;14820;48.682;8.890;2023-03-01T09:44:00;31.30;;;18.23;;
26223;SDS011;14820;48.682;8.890;2023-03-01T09:46:30;36.05;;;18.98;;
26223;SDS011;14820;48.682;8.890;2023-03-01T09:49:09;33.38;;;19.92;;
26223;SDS011;14820;48.682;8.890;2023-03-01T09:51:41;37.28;;;18.60;;
26223;SDS011;14820;48.682;8.890;2023-03-01T09:54:08;32.95;;;19.10;;
26223;SDS011;14820;48.682;8.890;2023-03-01T09:56:46;35.97;;;19.50;;
26223;SDS011;14820;48.682;8.890;2023-03-01T10:00:20;33.45;;;19.50;;
26223;SDS011;14820;48.682;8.890;2023-03-01T10:04:54;33.60;;;18.92;;
26223;SDS011;14820;48.682;8.890;2023-03-01T10:10:21;33.70;;;19.30;;
26223;SDS011;14820;48.682;8.890;2023-03-01T10:13:29;40.47;;;19.20;;
26223;SDS011;14820;48.682;8.890;2023-03-01T10:16:11;31.92;;;19.02;;
26223;SDS011;14820;48.682;8.890;2023-03-01T10:18:46;38.15;;;19.85;;
26223;SDS011;14820;48.682;8.890;2023-03-01T10:21:17;35.03;;;19.92;;
26223;SDS011;14820;48.682;8.890;2023-03-01T10:23:44;36.35;;;21.25;;
26223;SDS011;14820;48.682;8.890;2023-03-01T10:29:03;31.25;;;19.15;;
26223;SDS011;14820;48.682;8.890;2023-03-01T10:34:18;33.08;;;19.08;;
26223;SDS011;14820;48.682;8.890;2023-03-01T10:36:52;33.92;;;18.92;;
26223;SDS011;14820;48.682;8.890;2023-03-01T10:39:23;33.33;;;18.85;;
26223;SDS011;14820;48.682;8.890;2023-03-01T10:44:42;33.67;;;19.40;;
26223;SDS011;14820;48.682;8.890;2023-03-01T10:47:22;32.30;;;18.95;;
26223;SDS011;14820;48.682;8.890;2023-03-01T10:49:53;31.40;;;19.40;;
26223;SDS011;14820;48.682;8.890;2023-03-01T10:52:31;32.92;;;19.95;;
26223;SDS011;14820;48.682;8.890;2023-03-01T10:55:04;34.75;;;19.65;;
26223;SDS011;14820;48.682;8.890;2023-03-01T10:58:06;35.50;;;19.98;;
26223;SDS011;14820;48.682;8.890;2023-03-01T11:03:17;32.15;;;19.13;;
26223;SDS011;14820;48.682;8.890;2023-03-01T11:05:55;33.22;;;19.20;;
26223;SDS011;14820;48.682;8.890;2023-03-01T11:08:29;33.13;;;18.73;;
26223;SDS011;14820;48.682;8.890;2023-03-01T11:11:12;37.63;;;19.88;;
26223;SDS011;14820;48.682;8.890;2023-03-01T11:13:50;33.78;;;18.55;;
26223;SDS011;14820;48.682;8.890;2023-03-01T11:16:24;33.15;;;19.48;;
26223;SDS011;14820;48.682;8.890;2023-03-01T11:19:14;31.13;;;18.98;;
26223;SDS011;14820;48.682;8.890;2023-03-01T11:24:12;32.70;;;18.05;;
26223;SDS011;14820;48.682;8.890;2023-03-01T11:26:41;33.22;;;19.10;;
26223;SDS011;14820;48.682;8.890;2023-03-01T11:29:17;30.65;;;17.90;;
26223;SDS011;14820;48.682;8.890;2023-03-01T11:31:58;31.80;;;18.60;;
26223;SDS011;14820;48.682;8.890;2023-03-01T11:40:24;32.47;;;18.48;;
26223;SDS011;14820;48.682;8.890;2023-03-01T11:43:12;28.13;;;18.38;;
26223;SDS011;14820;48.682;8.890;2023-03-01T11:45:51;27.40;;;18.05;;
26223;SDS011;14820;48.682;8.890;2023-03-01T11:49:06;31.30;;;17.15;;
26223;SDS011;14820;48.682;8.890;2023-03-01T12:06:42;31.92;;;17.27;;
26223;SDS011;14820;48.682;8.890;2023-03-01T12:12:42;26.17;;;16.63;;
26223;SDS011;14820;48.682;8.890;2023-03-01T12:26:15;25.63;;;16.58;;
26223;SDS011;14820;48.682;8.890;2023-03-01T12:31:46;25.10;;;15.88;;
26223;SDS011;14820;48.682;8.890;2023-03-01T12:34:33;27.58;;;17.38;;
26223;SDS011;14820;48.682;8.890;2023-03-01T12:42:37;25.92;;;16.92;;
26223;SDS011;14820;48.682;8.890;2023-03-01T12:45:25;27.17;;;16.65;;
26223;SDS011;14820;48.682;8.890;2023-03-01T12:48:21;24.23;;;15.65;;
26223;SDS011;14820;48.682;8.890;2023-03-01T12:50:57;28.08;;;16.38;;
26223;SDS011;14820;48.682;8.890;2023-03-01T12:53:34;24.23;;;15.93;;
26223;SDS011;14820;48.682;8.890;2023-03-01T12:56:08;26.20;;;16.83;;
26223;SDS011;14820;48.682;8.890;2023-03-01T13:01:30;25.80;;;16.25;;
26223;SDS011;14820;48.682;8.890;2023-03-01T13:09:40;25.92;;;16.17;;
26223;SDS011;14820;48.682;8.890;2023-03-01T13:17:46;30.10;;;15.30;;
26223;SDS011;14820;48.682;8.890;2023-03-01T13:20:18;23.25;;;15.10;;
26223;SDS011;14820;48.682;8.890;2023-03-01T13:22:46;27.63;;;15.00;;
26223;SDS011;14820;48.682;8.890;2023-03-01T13:25:14;28.10;;;15.63;;
26223;SDS011;14820;48.682;8.890;2023-03-01T13:27:43;27.92;;;16.33;;
26223;SDS011;14820;48.682;8.890;2023-03-01T13:35:57;23.73;;;15.45;;
26223;SDS011;14820;48.682;8.890;2023-03-01T13:38:36;24.60;;;15.40;;
26223;SDS011;14820;48.682;8.890;2023-03-01T13:41:08;25.67;;;16.10;;
26223;SDS011;14820;48.682;8.890;2023-03-01T13:43:35;22.67;;;15.65;;
26223;SDS011;14820;48.682;8.890;2023-03-01T13:46:11;24.33;;;15.52;;
26223;SDS011;14820;48.682;8.890;2023-03-01T13:48:49;26.55;;;16.42;;
26223;SDS011;14820;48.682;8.890;2023-03-01T13:51:19;23.48;;;16.17;;
26223;SDS011;14820;48.682;8.890;2023-03-01T13:53:49;24.75;;;16.02;;
26223;SDS011;14820;48.682;8.890;2023-03-01T13:56:21;27.60;;;16.42;;
26223;SDS011;14820;48.682;8.890;2023-03-01T13:58:52;26.02;;;16.40;;
26223;SDS011;14820;48.682;8.890;2023-03-01T14:03:53;25.97;;;14.93;;
26223;SDS011;14820;48.682;8.890;2023-03-01T14:06:26;24.17;;;15.75;;
26223;SDS011;14820;48.682;8.890;2023-03-01T14:09:04;27.42;;;16.60;;
26223;SDS011;14820;48.682;8.890;2023-03-01T14:14:27;24.38;;;16.92;;
26223;SDS011;14820;48.682;8.890;2023-03-01T14:17:08;25.88;;;15.60;;
26223;SDS011;14820;48.682;8.890;2023-03-01T14:19:45;25.95;;;16.23;;
26223;SDS011;14820;48.682;8.890;2023-03-01T14:22:20;24.90;;;16.13;;
26223;SDS011;14820;48.682;8.890;2023-03-01T14:25:19;22.58;;;15.35;;
26223;SDS011;14820;48.682;8.890;2023-03-01T14:27:54;28.52;;;17.75;;
26223;SDS011;14820;48.682;8.890;2023-03-01T14:30:23;31.20;;;17.27;;
26223;SDS011;14820;48.682;8.890;2023-03-01T14:35:25;25.98;;;16.65;;
26223;SDS011;14820;48.682;8.890;2023-03-01T14:40:26;30.67;;;17.08;;
26223;SDS011;14820;48.682;8.890;2023-03-01T14:42:57;28.55;;;16.80;;
26223;SDS011;14820;48.682;8.890;2023-03-01T14:45:25;27.25;;;16.95;;
26223;SDS011;14820;48.682;8.890;2023-03-01T14:47:53;31.27;;;17.60;;
26223;SDS011;14820;48.682;8.890;2023-03-01T14:50:28;28.65;;;17.20;;
26223;SDS011;14820;48.682;8.890;2023-03-01T14:53:02;30.83;;;17.13;;
26223;SDS011;14820;48.682;8.890;2023-03-01T14:57:56;27.08;;;16.83;;
26223;SDS011;14820;48.682;8.890;2023-03-01T15:00:26;28.67;;;16.80;;
26223;SDS011;14820;48.682;8.890;2023-03-01T15:02:54;28.73;;;17.48;;
26223;SDS011;14820;48.682;8.890;2023-03-01T15:05:34;29.92;;;17.30;;
26223;SDS011;14820;48.682;8.890;2023-03-01T15:08:02;28.27;;;17.20;;
26223;SDS011;14820;48.682;8.890;2023-03-01T15:10:30;25.52;;;15.75;;
26223;SDS011;14820;48.682;8.890;2023-03-01T15:13:13;26.95;;;16.30;;
26223;SDS011;14820;48.682;8.890;2023-03-01T15:15:46;24.77;;;15.90;;
26223;SDS011;14820;48.682;8.890;2023-03-01T15:18:16;30.20;;;17.88;;
26223;SDS011;14820;48.682;8.890;2023-03-01T15:20:42;25.70;;;15.88;;
26223;SDS011;14820;48.682;8.890;2023-03-01T15:25:48;29.08;;;16.95;;
26223;SDS011;14820;48.682;8.890;2023-03-01T15:28:31;27.73;;;16.27;;
26223;SDS011;14820;48.682;8.890;2023-03-01T15:31:18;24.30;;;15.80;;
26223;SDS011;14820;48.682;8.890;2023-03-01T15:33:48;27.63;;;16.33;;
26223;SDS011;14820;48.682;8.890;2023-03-01T15:36:43;28.58;;;17.42;;
26223;SDS011;14820;48.682;8.890;2023-03-01T15:39:25;22.40;;;15.95;;
26223;SDS011;14820;48.682;8.890;2023-03-01T15:42:05;27.15;;;16.67;;
26223;SDS011;14820;48.682;8.890;2023-03-01T15:44:36;27.23;;;15.70;;
26223;SDS011;14820;48.682;8.890;2023-03-01T15:47:07;26.00;;;16.50;;
26223;SDS011;14820;48.682;8.890;2023-03-01T15:49:55;27.80;;;17.52;;
26223;SDS011;14820;48.682;8.890;2023-03-01T15:52:32;26.23;;;17.15;;
26223;SDS011;14820;48.682;8.890;2023-03-01T15:55:05;25.00;;;16.73;;
26223;SDS011;14820;48.682;8.890;2023-03-01T15:57:39;26.40;;;16.45;;
26223;SDS011;14820;48.682;8.890;2023-03-01T16:00:05;27.48;;;16.85;;
26223;SDS011;14820;48.682;8.890;2023-03-01T16:02:36;25.90;;;17.15;;
26223;SDS011;14820;48.682;8.890;2023-03-01T16:05:03;24.90;;;16.83;;
26223;SDS011;14820;48.682;8.890;2023-03-01T16:07:29;27.85;;;17.10;;
26223;SDS011;14820;48.682;8.890;2023-03-01T16:09:56;31.33;;;17.38;;
26223;SDS011;14820;48.682;8.890;2023-03-01T16:12:22;27.55;;;16.92;;
26223;SDS011;14820;48.682;8.890;2023-03-01T16:14:49;27.30;;;16.60;;
26223;SDS011;14820;48.682;8.890;2023-03-01T16:17:15;25.55;;;16.75;;
26223;SDS011;14820;48.682;8.890;2023-03-01T16:19:41;27.17;;;17.13;;
26223;SDS011;14820;48.682;8.890;2023-03-01T16:22:08;31.60;;;17.52;;
26223;SDS011;14820;48.682;8.890;2023-03-01T16:24:35;29.23;;;17.67;;
26223;SDS011;14820;48.682;8.890;2023-03-01T16:27:01;27.83;;;17.58;;
26223;SDS011;14820;48.682;8.890;2023-03-01T16:29:27;29.42;;;16.85;;
26223;SDS011;14820;48.682;8.890;2023-03-01T16:31:54;27.92;;;17.20;;